Time,TemperatureF,DewpointF,PressureIn,WindDirection,WindDirectionDegrees,WindSpeedMPH,WindSpeedGustMPH,Humidity,HourlyPrecipIn,Conditions,Clouds,dailyrainin,SolarRadiationWatts/m^2,SoftwareType,DateUTC
2013-01-15 00:10:00,38.9,35.6,30.25,NW,325,0.0,0.0,88,0.00,,,0.00,0,Wunderground v.1.15,2013-01-15 05:10:00,
2013-01-15 00:20:00,38.8,35.6,30.25,NW,325,0.0,0.0,88,0.00,,,0.00,0,Wunderground v.1.15,2013-01-15 05:20:00,
2013-01-15 00:30:00,38.7,35.7,30.25,NW,325,0.0,0.0,89,0.00,,,0.00,0,Wunderground v.1.15,2013-01-15 05:30:00,
2013-01-15 00:40:00,38.5,35.5,30.25,NW,325,0.0,0.0,89,0.00,,,0.00,0,Wunderground v.1.15,2013-01-15 05:40:00,
2013-01-15 00:50:00,38.4,35.4,30.25,NW,325,0.0,0.0,89,0.00,,,0.00,0,Wunderground v.1.15,2013-01-15 05:50:00,
2013-01-15 01:00:00,38.3,35.3,30.23,NW,325,0.0,0.0,89,0.00,,,0.00,0,Wunderground v.1.15,2013-01-15 06:00:00,
2013-01-15 01:10:00,38.1,35.4,30.23,NW,325,0.0,0.0,90,0.00,,,0.00,0,Wunderground v.1.15,2013-01-15 06:10:00,
2013-01-15 01:20:00,38.0,35.3,30.24,NW,325,0.0,0.0,90,0.00,,,0.00,0,Wunderground v.1.15,2013-01-15 06:20:00,
2013-01-15 01:40:00,37.8,35.4,30.24,NW,319,1.0,1.0,91,0.00,,,0.00,0,Wunderground v.1.15,2013-01-15 06:40:00,
2013-01-15 01:50:00,37.7,35.3,30.24,NW,320,2.0,2.0,91,0.00,,,0.00,0,Wunderground v.1.15,2013-01-15 06:50:00,
2013-01-15 02:00:00,37.5,35.1,30.25,NNW,338,1.0,1.0,91,0.00,,,0.00,0,Wunderground v.1.15,2013-01-15 07:00:00,
2013-01-15 02:09:00,37.5,35.4,30.24,NW,309,0.0,0.0,92,0.00,,,0.00,0,Wunderground v.1.15,2013-01-15 07:09:00,
2013-01-15 02:20:00,37.5,35.4,30.25,NNW,332,0.0,0.0,92,0.00,,,0.00,0,Wunderground v.1.15,2013-01-15 07:20:00,
2013-01-15 02:29:00,37.6,35.5,30.25,NNW,331,0.0,0.0,92,0.00,,,0.00,0,Wunderground v.1.15,2013-01-15 07:29:00,
2013-01-15 02:40:00,37.6,35.5,30.25,NNW,331,0.0,0.0,92,0.00,,,0.00,0,Wunderground v.1.15,2013-01-15 07:40:00,
2013-01-15 02:50:00,37.7,35.6,30.25,NNW,331,0.0,0.0,92,0.00,,,0.00,0,Wunderground v.1.15,2013-01-15 07:50:00,
2013-01-15 03:00:00,37.7,35.6,30.24,SSE,150,1.0,1.0,92,0.00,,,0.00,0,Wunderground v.1.15,2013-01-15 08:00:00,
2013-01-15 03:09:00,37.7,35.6,30.25,SSE,150,0.0,0.0,92,0.00,,,0.00,0,Wunderground v.1.15,2013-01-15 08:09:00,
2013-01-15 03:20:00,37.8,35.7,30.24,SSE,150,0.0,0.0,92,0.00,,,0.00,0,Wunderground v.1.15,2013-01-15 08:20:00,
2013-01-15 03:30:00,37.8,35.7,30.25,SSE,150,0.0,0.0,92,0.00,,,0.00,0,Wunderground v.1.15,2013-01-15 08:30:00,
2013-01-15 03:40:00,37.8,35.7,30.25,SSE,150,0.0,0.0,92,0.00,,,0.00,0,Wunderground v.1.15,2013-01-15 08:40:00,
2013-01-15 03:50:00,37.8,36.0,30.25,SSE,150,0.0,0.0,93,0.00,,,0.00,0,Wunderground v.1.15,2013-01-15 08:50:00,
2013-01-15 04:00:00,37.8,36.0,30.25,SSE,150,0.0,0.0,93,0.00,,,0.00,0,Wunderground v.1.15,2013-01-15 09:00:00,
2013-01-15 04:10:00,37.7,35.9,30.25,SSE,150,0.0,0.0,93,0.00,,,0.00,0,Wunderground v.1.15,2013-01-15 09:10:00,
2013-01-15 04:20:00,37.8,36.0,30.24,SSE,150,0.0,0.0,93,0.00,,,0.00,0,Wunderground v.1.15,2013-01-15 09:20:00,
2013-01-15 04:30:00,37.8,36.0,30.24,SSE,150,0.0,0.0,93,0.00,,,0.00,0,Wunderground v.1.15,2013-01-15 09:30:00,
2013-01-15 04:40:00,37.8,36.0,30.24,SSE,150,0.0,0.0,93,0.00,,,0.00,0,Wunderground v.1.15,2013-01-15 09:40:00,
2013-01-15 04:49:00,37.7,35.9,30.24,SSE,150,0.0,0.0,93,0.00,,,0.00,0,Wunderground v.1.15,2013-01-15 09:49:00,
2013-01-15 05:00:00,37.7,35.9,30.23,SSE,150,0.0,0.0,93,0.00,,,0.00,0,Wunderground v.1.15,2013-01-15 10:00:00,
2013-01-15 05:10:00,37.8,36.0,30.23,SSE,150,0.0,0.0,93,0.00,,,0.00,0,Wunderground v.1.15,2013-01-15 10:10:00,
2013-01-15 05:20:00,37.7,35.9,30.23,SSE,150,0.0,0.0,93,0.00,,,0.00,0,Wunderground v.1.15,2013-01-15 10:20:00,
2013-01-15 05:30:00,37.8,36.0,30.24,SSE,150,0.0,0.0,93,0.00,,,0.00,0,Wunderground v.1.15,2013-01-15 10:30:00,
2013-01-15 05:40:00,37.8,36.0,30.24,North,5,0.0,0.0,93,0.00,,,0.00,0,Wunderground v.1.15,2013-01-15 10:40:00,
2013-01-15 05:50:00,37.7,35.9,30.25,North,5,0.0,0.0,93,0.00,,,0.00,0,Wunderground v.1.15,2013-01-15 10:50:00,
2013-01-15 06:00:00,37.7,35.9,30.25,North,5,0.0,0.0,93,0.00,,,0.00,0,Wunderground v.1.15,2013-01-15 11:00:00,
2013-01-15 06:10:00,37.7,35.9,30.25,North,5,0.0,0.0,93,0.00,,,0.00,0,Wunderground v.1.15,2013-01-15 11:10:00,
2013-01-15 06:20:00,37.7,35.9,30.26,North,5,0.0,0.0,93,0.00,,,0.00,0,Wunderground v.1.15,2013-01-15 11:20:00,
2013-01-15 06:30:00,37.7,35.9,30.26,North,5,0.0,0.0,93,0.00,,,0.00,0,Wunderground v.1.15,2013-01-15 11:30:00,
2013-01-15 06:40:00,37.7,35.9,30.26,North,5,0.0,0.0,93,0.00,,,0.00,0,Wunderground v.1.15,2013-01-15 11:40:00,
2013-01-15 06:50:00,37.7,35.9,30.27,North,5,0.0,0.0,93,0.00,,,0.00,0,Wunderground v.1.15,2013-01-15 11:50:00,
2013-01-15 07:00:00,37.7,35.9,30.27,North,5,0.0,0.0,93,0.00,,,0.00,0,Wunderground v.1.15,2013-01-15 12:00:00,
2013-01-15 07:10:00,37.7,35.9,30.27,North,5,0.0,0.0,93,0.00,,,0.00,0,Wunderground v.1.15,2013-01-15 12:10:00,
2013-01-15 07:20:00,37.7,35.9,30.27,North,5,0.0,0.0,93,0.00,,,0.00,0,Wunderground v.1.15,2013-01-15 12:20:00,
2013-01-15 07:30:00,37.6,35.8,30.27,North,5,0.0,0.0,93,0.00,,,0.00,0,Wunderground v.1.15,2013-01-15 12:30:00,
2013-01-15 07:40:00,37.6,35.8,30.29,North,5,0.0,0.0,93,0.00,,,0.00,0,Wunderground v.1.15,2013-01-15 12:40:00,
2013-01-15 07:50:00,37.6,35.8,30.29,North,5,0.0,0.0,93,0.00,,,0.00,5,Wunderground v.1.15,2013-01-15 12:50:00,
2013-01-15 08:00:00,37.6,35.8,30.30,North,5,0.0,0.0,93,0.00,,,0.00,5,Wunderground v.1.15,2013-01-15 13:00:00,
2013-01-15 08:10:00,37.6,35.8,30.31,North,5,0.0,0.0,93,0.00,,,0.00,11,Wunderground v.1.15,2013-01-15 13:10:00,
2013-01-15 08:20:00,37.6,35.8,30.31,North,5,0.0,1.0,93,0.00,,,0.00,18,Wunderground v.1.15,2013-01-15 13:20:00,
2013-01-15 08:30:00,37.6,35.8,30.31,North,5,0.0,0.0,93,0.00,,,0.00,18,Wunderground v.1.15,2013-01-15 13:30:00,
2013-01-15 08:40:00,37.7,35.9,30.31,North,5,0.0,0.0,93,0.00,,,0.00,21,Wunderground v.1.15,2013-01-15 13:40:00,
2013-01-15 08:50:00,37.8,36.2,30.31,North,5,0.0,0.0,94,0.00,,,0.00,25,Wunderground v.1.15,2013-01-15 13:50:00,
2013-01-15 09:00:00,37.9,36.3,30.32,NW,319,0.0,0.0,94,0.00,,,0.00,19,Wunderground v.1.15,2013-01-15 14:00:00,
2013-01-15 09:10:00,37.9,36.1,30.32,NW,325,0.0,2.0,93,0.00,,,0.00,37,Wunderground v.1.15,2013-01-15 14:10:00,
2013-01-15 09:20:00,37.9,36.1,30.32,NW,325,1.0,1.0,93,0.00,,,0.00,42,Wunderground v.1.15,2013-01-15 14:20:00,
2013-01-15 09:30:00,37.8,36.0,30.33,NW,326,0.0,2.0,93,0.00,,,0.00,46,Wunderground v.1.15,2013-01-15 14:30:00,
2013-01-15 09:40:00,37.9,36.1,30.33,NW,326,0.0,0.0,93,0.00,,,0.00,46,Wunderground v.1.15,2013-01-15 14:40:00,
2013-01-15 09:50:00,38.0,35.9,30.33,NNW,327,0.0,0.0,92,0.00,,,0.00,49,Wunderground v.1.15,2013-01-15 14:50:00,
2013-01-15 10:00:00,38.1,35.7,30.33,North,355,1.0,1.0,91,0.00,,,0.00,56,Wunderground v.1.15,2013-01-15 15:00:00,
2013-01-15 10:10:00,38.3,35.9,30.32,NNW,348,1.0,1.0,91,0.00,,,0.00,77,Wunderground v.1.15,2013-01-15 15:10:00,
2013-01-15 10:20:00,38.5,35.8,30.33,NW,323,1.0,1.0,90,0.00,,,0.00,60,Wunderground v.1.15,2013-01-15 15:20:00,
2013-01-15 10:30:00,38.6,35.6,30.33,NNW,334,1.0,1.0,89,0.00,,,0.00,56,Wunderground v.1.15,2013-01-15 15:30:00,
2013-01-15 10:40:00,38.7,35.5,30.33,NNW,333,1.0,1.0,88,0.00,,,0.00,72,Wunderground v.1.15,2013-01-15 15:40:00,
2013-01-15 10:50:00,38.8,35.0,30.32,North,5,2.0,2.0,86,0.00,,,0.00,69,Wunderground v.1.15,2013-01-15 15:50:00,
2013-01-15 11:00:00,38.9,35.1,30.32,NW,319,1.0,1.0,86,0.00,,,0.00,53,Wunderground v.1.15,2013-01-15 16:00:00,
2013-01-15 11:10:00,39.0,34.9,30.31,North,9,1.0,2.0,85,0.00,,,0.00,86,Wunderground v.1.15,2013-01-15 16:10:00,
2013-01-15 11:20:00,39.0,34.6,30.32,NNW,329,1.0,1.0,84,0.00,,,0.00,63,Wunderground v.1.15,2013-01-15 16:20:00,
2013-01-15 11:30:00,39.0,34.6,30.30,NNW,329,1.0,1.0,84,0.00,,,0.00,70,Wunderground v.1.15,2013-01-15 16:30:00,
2013-01-15 11:40:00,39.0,34.6,30.30,NNW,336,1.0,1.0,84,0.00,,,0.00,51,Wunderground v.1.15,2013-01-15 16:40:00,
2013-01-15 11:49:00,39.1,34.7,30.29,NNW,338,0.0,0.0,84,0.00,,,0.00,51,Wunderground v.1.15,2013-01-15 16:49:00,
2013-01-15 12:00:00,39.2,34.8,30.28,NNW,339,0.0,1.0,84,0.00,,,0.00,65,Wunderground v.1.15,2013-01-15 17:00:00,
2013-01-15 12:10:00,39.2,34.8,30.28,ENE,57,1.0,2.0,84,0.00,,,0.00,70,Wunderground v.1.15,2013-01-15 17:10:00,
2013-01-15 12:20:00,39.3,34.9,30.27,NNW,330,1.0,2.0,84,0.00,,,0.00,90,Wunderground v.1.15,2013-01-15 17:20:00,
2013-01-15 12:30:00,39.4,35.0,30.27,NNW,333,2.0,2.0,84,0.00,,,0.00,86,Wunderground v.1.15,2013-01-15 17:30:00,
2013-01-15 12:40:00,39.3,34.9,30.27,NNW,331,1.0,1.0,84,0.00,,,0.00,81,Wunderground v.1.15,2013-01-15 17:40:00,
2013-01-15 12:50:00,39.5,35.1,30.27,NW,325,1.0,4.0,84,0.00,,,0.00,102,Wunderground v.1.15,2013-01-15 17:50:00,
2013-01-15 13:00:00,39.6,35.2,30.26,NNW,336,2.0,2.0,84,0.00,,,0.00,104,Wunderground v.1.15,2013-01-15 18:00:00,
2013-01-15 13:10:00,39.7,35.3,30.25,North,5,2.0,2.0,84,0.00,,,0.00,93,Wunderground v.1.15,2013-01-15 18:10:00,
2013-01-15 13:20:00,39.6,35.2,30.23,NNW,338,2.0,2.0,84,0.00,,,0.00,113,Wunderground v.1.15,2013-01-15 18:20:00,
2013-01-15 13:30:00,39.7,35.3,30.24,NNW,340,1.0,1.0,84,0.00,,,0.00,83,Wunderground v.1.15,2013-01-15 18:30:00,
2013-01-15 13:40:00,39.7,35.3,30.23,NE,38,1.0,1.0,84,0.00,,,0.00,95,Wunderground v.1.15,2013-01-15 18:40:00,
2013-01-15 13:50:00,39.8,35.4,30.22,NNE,27,1.0,1.0,84,0.00,,,0.00,90,Wunderground v.1.15,2013-01-15 18:50:00,
2013-01-15 14:00:00,39.9,35.5,30.24,NW,312,1.0,1.0,84,0.00,,,0.00,72,Wunderground v.1.15,2013-01-15 19:00:00,
2013-01-15 14:10:00,40.0,35.6,30.24,NW,323,0.0,0.0,84,0.00,,,0.00,65,Wunderground v.1.15,2013-01-15 19:10:00,
2013-01-15 14:20:00,39.9,35.2,30.24,NNE,28,1.0,2.0,83,0.00,,,0.00,97,Wunderground v.1.15,2013-01-15 19:20:00,
2013-01-15 14:30:00,39.9,34.9,30.23,ENE,64,1.0,2.0,82,0.00,,,0.00,116,Wunderground v.1.15,2013-01-15 19:30:00,
2013-01-15 14:40:00,40.1,35.0,30.22,North,360,2.0,2.0,82,0.00,,,0.00,130,Wunderground v.1.15,2013-01-15 19:40:00,
2013-01-15 14:50:00,40.1,35.0,30.23,North,355,2.0,2.0,82,0.00,,,0.00,121,Wunderground v.1.15,2013-01-15 19:50:00,
2013-01-15 15:00:00,40.1,34.7,30.23,North,5,2.0,3.0,81,0.00,,,0.00,86,Wunderground v.1.15,2013-01-15 20:00:00,
2013-01-15 15:09:00,39.9,34.5,30.24,North,350,2.0,2.0,81,0.00,,,0.00,69,Wunderground v.1.15,2013-01-15 20:09:00,
2013-01-15 15:20:00,40.0,34.6,30.24,North,360,1.0,1.0,81,0.00,,,0.00,47,Wunderground v.1.15,2013-01-15 20:20:00,
2013-01-15 15:30:00,39.9,34.2,30.25,NNW,333,1.0,3.0,80,0.00,,,0.00,32,Wunderground v.1.15,2013-01-15 20:30:00,
2013-01-15 15:40:00,39.8,34.1,30.25,NNW,333,1.0,1.0,80,0.00,,,0.00,25,Wunderground v.1.15,2013-01-15 20:40:00,
2013-01-15 15:50:00,39.8,34.1,30.25,NNW,337,1.0,1.0,80,0.00,,,0.00,19,Wunderground v.1.15,2013-01-15 20:50:00,
2013-01-15 16:00:00,39.7,34.0,30.25,NNE,16,1.0,1.0,80,0.00,,,0.00,19,Wunderground v.1.15,2013-01-15 21:00:00,
2013-01-15 16:10:00,39.6,34.2,30.24,NNE,20,1.0,2.0,81,0.00,,,0.00,19,Wunderground v.1.15,2013-01-15 21:10:00,
2013-01-15 16:20:00,39.4,34.1,30.24,NNE,15,1.0,1.0,81,0.00,,,0.00,12,Wunderground v.1.15,2013-01-15 21:20:00,
2013-01-15 16:30:00,39.3,34.0,30.21,ENE,71,1.0,3.0,81,0.00,,,0.00,16,Wunderground v.1.15,2013-01-15 21:30:00,
2013-01-15 16:40:00,39.2,33.9,30.22,ENE,57,1.0,1.0,81,0.00,,,0.00,5,Wunderground v.1.15,2013-01-15 21:40:00,
2013-01-15 16:50:00,39.1,33.8,30.21,NE,46,0.0,0.0,81,0.00,,,0.00,0,Wunderground v.1.15,2013-01-15 21:50:00,
2013-01-15 17:00:00,39.1,33.8,30.23,NNE,17,1.0,1.0,81,0.00,,,0.00,0,Wunderground v.1.15,2013-01-15 22:00:00,
2013-01-15 17:09:00,39.0,34.0,30.23,NNW,330,0.0,1.0,82,0.00,,,0.00,0,Wunderground v.1.15,2013-01-15 22:09:00,
2013-01-15 17:20:00,38.9,33.9,30.24,NNW,347,0.0,0.0,82,0.00,,,0.00,0,Wunderground v.1.15,2013-01-15 22:20:00,
2013-01-15 17:30:00,38.9,33.9,30.24,NNW,347,0.0,0.0,82,0.00,,,0.00,0,Wunderground v.1.15,2013-01-15 22:30:00,
2013-01-15 17:40:00,38.8,33.8,30.25,North,11,1.0,1.0,82,0.00,,,0.00,0,Wunderground v.1.15,2013-01-15 22:40:00,
2013-01-15 17:50:00,38.7,33.7,30.24,NNE,16,0.0,0.0,82,0.00,,,0.00,0,Wunderground v.1.15,2013-01-15 22:50:00,
2013-01-15 18:00:00,38.6,33.6,30.24,NNE,21,0.0,3.0,82,0.00,,,0.00,0,Wunderground v.1.15,2013-01-15 23:00:00,
2013-01-15 18:09:00,38.5,33.5,30.23,North,5,1.0,2.0,82,0.00,,,0.00,0,Wunderground v.1.15,2013-01-15 23:09:00,
2013-01-15 18:20:00,38.4,33.4,30.24,North,9,1.0,1.0,82,0.00,,,0.00,0,Wunderground v.1.15,2013-01-15 23:20:00,
2013-01-15 18:30:00,38.2,32.9,30.24,NNW,346,2.0,2.0,81,0.00,,,0.00,0,Wunderground v.1.15,2013-01-15 23:30:00,
2013-01-15 18:40:00,38.1,32.8,30.24,NNW,347,1.0,2.0,81,0.00,,,0.00,0,Wunderground v.1.15,2013-01-15 23:40:00,
2013-01-15 18:50:00,38.0,32.7,30.25,NNW,348,1.0,1.0,81,0.00,,,0.00,0,Wunderground v.1.15,2013-01-15 23:50:00,
2013-01-15 19:00:00,37.8,32.8,30.25,North,360,1.0,1.0,82,0.00,,,0.00,0,Wunderground v.1.15,2013-01-16 00:00:00,
2013-01-15 19:10:00,37.7,32.7,30.25,NE,36,1.0,1.0,82,0.00,,,0.00,0,Wunderground v.1.15,2013-01-16 00:10:00,
2013-01-15 19:20:00,37.5,32.8,30.24,NNE,13,0.0,0.0,83,0.09,,,0.02,0,Wunderground v.1.15,2013-01-16 00:20:00,
2013-01-15 19:30:00,37.5,33.1,30.24,NNE,13,0.0,0.0,84,0.06,,,0.02,0,Wunderground v.1.15,2013-01-16 00:30:00,
2013-01-15 19:40:00,37.3,33.2,30.24,NNE,13,0.0,0.0,85,0.09,,,0.04,0,Wunderground v.1.15,2013-01-16 00:40:00,
2013-01-15 19:50:00,37.1,33.0,30.24,NNE,13,0.0,0.0,85,0.04,,,0.04,0,Wunderground v.1.15,2013-01-16 00:50:00,
2013-01-15 20:00:00,37.0,33.2,30.24,NNE,13,0.0,0.0,86,0.00,,,0.04,0,Wunderground v.1.15,2013-01-16 01:00:00,
2013-01-15 20:10:00,36.8,33.3,30.23,NNE,13,0.0,0.0,87,0.00,,,0.04,0,Wunderground v.1.15,2013-01-16 01:10:00,
2013-01-15 20:20:00,36.6,33.1,30.24,NNE,13,0.0,0.0,87,0.00,,,0.04,0,Wunderground v.1.15,2013-01-16 01:20:00,
2013-01-15 20:30:00,36.4,33.2,30.23,NNE,13,0.0,0.0,88,0.00,,,0.04,0,Wunderground v.1.15,2013-01-16 01:30:00,
2013-01-15 20:40:00,36.2,33.3,30.23,NNE,31,0.0,0.0,89,0.00,,,0.04,0,Wunderground v.1.15,2013-01-16 01:40:00,
2013-01-15 20:50:00,36.0,33.1,30.22,NNW,331,0.0,0.0,89,0.00,,,0.04,0,Wunderground v.1.15,2013-01-16 01:50:00,
2013-01-15 21:00:00,35.9,33.3,30.22,NNE,16,0.0,0.0,90,0.00,,,0.04,0,Wunderground v.1.15,2013-01-16 02:00:00,
2013-01-15 21:09:00,35.7,33.3,30.22,NNW,342,0.0,0.0,91,0.00,,,0.04,0,Wunderground v.1.15,2013-01-16 02:09:00,
2013-01-15 21:20:00,35.6,33.2,30.21,NNE,30,0.0,0.0,91,0.00,,,0.04,0,Wunderground v.1.15,2013-01-16 02:20:00,
2013-01-15 21:30:00,35.5,33.1,30.21,North,5,0.0,0.0,91,0.00,,,0.04,0,Wunderground v.1.15,2013-01-16 02:30:00,
2013-01-15 21:39:00,35.4,33.3,30.21,North,5,0.0,1.0,92,0.00,,,0.04,0,Wunderground v.1.15,2013-01-16 02:39:00,
2013-01-15 21:50:00,35.4,33.3,30.19,NE,34,0.0,0.0,92,0.00,,,0.04,0,Wunderground v.1.15,2013-01-16 02:50:00,
2013-01-15 22:00:00,35.3,33.2,30.19,North,5,1.0,2.0,92,0.00,,,0.04,0,Wunderground v.1.15,2013-01-16 03:00:00,
2013-01-15 22:10:00,35.2,33.1,30.19,North,355,1.0,3.0,92,0.00,,,0.04,0,Wunderground v.1.15,2013-01-16 03:10:00,
2013-01-15 22:20:00,34.9,33.1,30.18,NNE,14,2.0,2.0,93,0.00,,,0.04,0,Wunderground v.1.15,2013-01-16 03:20:00,
2013-01-15 22:30:00,34.6,32.8,30.18,NE,50,1.0,1.0,93,0.00,,,0.04,0,Wunderground v.1.15,2013-01-16 03:30:00,
2013-01-15 22:40:00,34.4,32.6,30.19,North,5,1.0,1.0,93,0.00,,,0.04,0,Wunderground v.1.15,2013-01-16 03:40:00,
2013-01-15 22:49:00,34.4,32.6,30.18,NNE,13,0.0,0.0,93,0.00,,,0.04,0,Wunderground v.1.15,2013-01-16 03:49:00,
2013-01-15 23:00:00,34.4,32.6,30.17,NE,39,0.0,0.0,93,0.00,,,0.04,0,Wunderground v.1.15,2013-01-16 04:00:00,
2013-01-15 23:10:00,34.4,32.6,30.16,NNE,29,0.0,0.0,93,0.00,,,0.04,0,Wunderground v.1.15,2013-01-16 04:10:00,
2013-01-15 23:20:00,34.4,32.6,30.16,NE,46,0.0,0.0,93,0.00,,,0.04,0,Wunderground v.1.15,2013-01-16 04:20:00,
2013-01-15 23:30:00,34.4,32.9,30.16,NNW,348,0.0,1.0,94,0.00,,,0.04,0,Wunderground v.1.15,2013-01-16 04:30:00,
2013-01-15 23:40:00,34.4,32.9,30.15,NNE,20,0.0,0.0,94,0.00,,,0.04,0,Wunderground v.1.15,2013-01-16 04:40:00,
2013-01-15 23:50:00,34.4,32.9,30.15,NNE,20,0.0,0.0,94,0.00,,,0.04,0,Wunderground v.1.15,2013-01-16 04:50:00,